Time;durP1;ratioP1;P1;durP2;ratioP2;P2;SDS_P1;SDS_P2;PMS_P1;PMS_P2;Temp;Humidity;BMP_temperature;BMP_pressure;BME280_temperature;BME280_humidity;BME280_pressure;Samples;Min_cycle;Max_cycle;Signal;HPM_P1;HPM_P2
2024/01/16 00:01:43;;;;;;;144.75;52.03;;;;;;;7.07;nan;98924.97;5016361;28;20440;-71
2024/01/16 00:04:13;;;;;;;145.70;52.53;;;;;;;7.05;nan;98921.66;5018494;28;20060;-71
2024/01/16 00:06:43;;;;;;;144.38;50.80;;;;;;;7.30;nan;98925.97;5013532;28;20041;-72
2024/01/16 00:09:15;;;;;;;153.13;53.58;;;;;;;7.22;nan;98921.50;5014895;28;20137;-72
2024/01/16 00:11:44;;;;;;;136.80;51.05;;;;;;;7.08;nan;98930.06;5018730;28;20053;-72
2024/01/16 00:14:14;;;;;;;135.68;50.38;;;;;;;7.21;nan;98922.47;5020395;28;20669;-72
2024/01/16 00:16:44;;;;;;;140.23;52.05;;;;;;;7.22;nan;98929.41;4977722;28;20082;-72
2024/01/16 00:19:13;;;;;;;134.40;48.60;;;;;;;7.03;nan;98923.66;4996138;28;20046;-72
2024/01/16 00:21:47;;;;;;;130.43;48.58;;;;;;;6.98;nan;98928.59;5000660;28;20042;-72
2024/01/16 00:24:17;;;;;;;124.40;45.67;;;;;;;6.95;nan;98926.31;5002279;28;20173;-72
2024/01/16 00:26:46;;;;;;;129.38;48.75;;;;;;;6.70;nan;98928.06;4999043;28;20045;-72
2024/01/16 00:29:16;;;;;;;124.78;46.95;;;;;;;6.78;nan;98922.81;5004578;28;20053;-71
2024/01/16 00:31:45;;;;;;;140.23;49.45;;;;;;;6.91;nan;98928.41;5009038;28;20048;-71
2024/01/16 00:34:15;;;;;;;134.07;47.53;;;;;;;6.86;nan;98927.28;5004664;28;20061;-72
2024/01/16 00:36:44;;;;;;;125.93;46.65;;;;;;;6.74;nan;98926.75;5002189;28;20689;-72
2024/01/16 00:39:14;;;;;;;127.30;47.83;;;;;;;6.86;nan;98929.91;5004302;28;20065;-72
2024/01/16 00:41:43;;;;;;;133.95;46.45;;;;;;;6.55;nan;98934.97;5008597;28;20046;-72
2024/01/16 00:44:13;;;;;;;139.38;48.35;;;;;;;6.39;nan;98932.25;5007695;28;20056;-72
2024/01/16 00:46:42;;;;;;;136.20;48.20;;;;;;;6.46;nan;98931.47;4978964;28;20065;-72
2024/01/16 00:49:12;;;;;;;129.20;47.50;;;;;;;6.74;nan;98934.66;5004659;28;20046;-72
2024/01/16 00:51:41;;;;;;;136.50;47.70;;;;;;;6.65;nan;98938.25;4995914;28;20042;-72
2024/01/16 00:54:10;;;;;;;133.18;49.42;;;;;;;6.68;nan;98943.22;5005816;28;20054;-72
2024/01/16 00:56:42;;;;;;;136.68;48.63;;;;;;;6.66;nan;98929.38;4998902;28;20481;-72
2024/01/16 00:59:12;;;;;;;136.35;49.88;;;;;;;6.71;nan;98934.97;4978963;28;20050;-72
2024/01/16 01:01:41;;;;;;;135.15;49.03;;;;;;;6.72;nan;98934.84;4987773;28;20330;-72
2024/01/16 01:04:11;;;;;;;131.85;48.33;;;;;;;6.73;nan;98933.00;4988360;28;20540;-71
2024/01/16 01:06:40;;;;;;;130.90;49.75;;;;;;;6.76;nan;98937.94;5003685;28;20054;-72
2024/01/16 01:09:12;;;;;;;123.22;46.78;;;;;;;6.60;nan;98936.09;4994498;28;20049;-72
2024/01/16 01:11:42;;;;;;;114.70;47.80;;;;;;;6.61;nan;98934.28;5006225;28;20053;-71
2024/01/16 01:14:11;;;;;;;127.78;48.33;;;;;;;6.59;nan;98928.38;5005085;28;20061;-72
2024/01/16 01:16:40;;;;;;;136.60;51.83;;;;;;;6.53;nan;98932.47;5005835;28;20553;-72
2024/01/16 01:19:09;;;;;;;128.30;51.28;;;;;;;6.63;nan;98924.44;5003650;28;20057;-72
2024/01/16 01:21:39;;;;;;;130.23;49.97;;;;;;;6.49;nan;98931.16;5003137;28;20061;-72
2024/01/16 01:24:09;;;;;;;123.03;49.38;;;;;;;6.50;nan;98935.44;4995234;28;20050;-72
2024/01/16 01:26:38;;;;;;;117.05;47.47;;;;;;;6.73;nan;98927.72;5021862;28;20128;-72
2024/01/16 01:29:07;;;;;;;134.13;49.42;;;;;;;6.51;nan;98926.53;4994151;28;20050;-72
2024/01/16 01:31:37;;;;;;;123.72;46.72;;;;;;;6.59;nan;98931.03;4989566;28;20042;-72
2024/01/16 01:34:07;;;;;;;134.35;49.38;;;;;;;6.42;nan;98931.97;5007727;28;20150;-72
2024/01/16 01:36:37;;;;;;;125.68;45.92;;;;;;;6.45;nan;98934.28;4993880;28;20130;-72
2024/01/16 01:39:07;;;;;;;125.18;47.65;;;;;;;6.37;nan;98926.34;4989808;28;20348;-72
2024/01/16 01:41:37;;;;;;;128.43;46.38;;;;;;;6.39;nan;98934.91;4971056;28;20144;-72
2024/01/16 01:44:06;;;;;;;120.57;45.30;;;;;;;6.41;nan;98932.94;5001213;28;20049;-71
2024/01/16 01:46:36;;;;;;;114.72;44.35;;;;;;;6.44;nan;98938.69;4995896;28;20050;-71
2024/01/16 01:49:05;;;;;;;118.25;45.72;;;;;;;6.38;nan;98927.97;5005294;28;20060;-72
2024/01/16 01:51:35;;;;;;;111.75;45.30;;;;;;;6.51;nan;98933.59;5005655;28;20374;-72
2024/01/16 01:54:05;;;;;;;112.47;44.75;;;;;;;6.63;nan;98927.91;5008612;28;20058;-71
2024/01/16 01:56:35;;;;;;;125.00;46.08;;;;;;;6.67;nan;98920.50;5015378;28;20404;-72
2024/01/16 01:59:06;;;;;;;118.45;45.38;;;;;;;6.67;nan;98928.41;5024073;28;20492;-72
2024/01/16 02:01:35;;;;;;;110.63;45.67;;;;;;;6.44;nan;98924.72;5021305;28;20052;-72
2024/01/16 02:04:06;;;;;;;113.38;43.53;;;;;;;6.57;nan;98927.72;4987517;28;20140;-72
2024/01/16 02:06:35;;;;;;;112.40;44.88;;;;;;;6.46;nan;98926.19;5019013;28;20045;-74
2024/01/16 02:09:06;;;;;;;115.43;44.03;;;;;;;6.23;nan;98931.25;5000101;28;20050;-72
2024/01/16 02:11:36;;;;;;;113.93;42.97;;;;;;;6.25;nan;98931.06;4986790;28;20050;-72
2024/01/16 02:14:05;;;;;;;112.45;41.35;;;;;;;6.17;nan;98928.41;4998605;28;20056;-72
2024/01/16 02:16:44;;;;;;;101.13;40.63;;;;;;;6.07;nan;98931.16;5024609;28;20428;-72
2024/01/16 02:19:14;;;;;;;106.13;40.88;;;;;;;6.14;nan;98937.47;5015637;28;20057;-72
2024/01/16 02:22:00;;;;;;;113.03;43.17;;;;;;;6.27;nan;98937.84;4998244;28;20050;-72
2024/01/16 02:24:30;;;;;;;96.88;41.63;;;;;;;6.08;nan;98937.25;4988017;28;20053;-71
2024/01/16 02:27:00;;;;;;;109.10;44.97;;;;;;;6.15;nan;98936.47;4987035;28;20050;-71
2024/01/16 02:29:29;;;;;;;115.07;43.90;;;;;;;6.29;nan;98950.81;4996005;28;20492;-71
2024/01/16 02:32:00;;;;;;;114.93;43.42;;;;;;;6.20;nan;98947.31;4999175;28;20100;-72
2024/01/16 02:34:29;;;;;;;110.70;45.53;;;;;;;6.31;nan;98952.31;4982470;28;20478;-72
2024/01/16 02:36:58;;;;;;;125.93;43.88;;;;;;;6.23;nan;98949.66;4993180;28;20157;-72
2024/01/16 02:39:28;;;;;;;116.90;44.35;;;;;;;6.24;nan;98955.75;4994503;28;20134;-70
2024/01/16 02:41:57;;;;;;;113.30;43.42;;;;;;;6.31;nan;98954.94;4998665;28;20097;-70
2024/01/16 02:44:26;;;;;;;130.45;44.90;;;;;;;6.21;nan;98951.59;5001193;28;20129;-70
2024/01/16 02:46:56;;;;;;;125.65;47.38;;;;;;;6.36;nan;98961.53;4998681;28;20731;-71
2024/01/16 02:49:25;;;;;;;129.02;45.90;;;;;;;6.25;nan;98973.16;4995727;28;20046;-71
2024/01/16 02:51:55;;;;;;;130.35;47.05;;;;;;;6.23;nan;98961.97;4999878;28;20421;-71
2024/01/16 02:54:24;;;;;;;116.60;44.80;;;;;;;6.23;nan;98970.69;4998084;28;20054;-71
2024/01/16 02:56:54;;;;;;;121.60;46.15;;;;;;;6.23;nan;98970.69;4998626;28;20149;-71
2024/01/16 02:59:24;;;;;;;123.65;45.25;;;;;;;6.38;nan;98981.41;5002554;28;20054;-72
2024/01/16 03:01:53;;;;;;;121.65;44.60;;;;;;;6.31;nan;98986.50;4997176;28;20469;-71
2024/01/16 03:04:24;;;;;;;121.72;46.80;;;;;;;6.22;nan;98992.72;4995401;28;20208;-70
2024/01/16 03:06:53;;;;;;;125.57;46.00;;;;;;;6.23;nan;98993.53;4997598;28;20054;-71
2024/01/16 03:09:23;;;;;;;126.95;46.63;;;;;;;6.19;nan;98995.66;4998941;28;20148;-70
2024/01/16 03:11:52;;;;;;;121.63;43.25;;;;;;;6.31;nan;98998.81;4997753;28;20056;-71
2024/01/16 03:14:21;;;;;;;120.20;45.25;;;;;;;6.45;nan;99000.88;4989549;28;20119;-71
2024/01/16 03:16:51;;;;;;;130.10;46.50;;;;;;;6.45;nan;99007.94;4982706;28;20386;-71
2024/01/16 03:19:20;;;;;;;124.47;44.90;;;;;;;6.31;nan;99019.88;5002725;28;20533;-70
2024/01/16 03:21:53;;;;;;;125.85;43.90;;;;;;;6.40;nan;99018.94;4996877;28;20068;-71
2024/01/16 03:24:23;;;;;;;123.75;44.42;;;;;;;6.28;nan;99028.09;5013315;28;20041;-71
2024/01/16 03:26:52;;;;;;;121.18;44.28;;;;;;;6.14;nan;99033.91;4998750;28;20054;-71
2024/01/16 03:29:22;;;;;;;122.47;45.40;;;;;;;6.18;nan;99033.47;5006208;28;20811;-71
2024/01/16 03:31:53;;;;;;;119.25;43.83;;;;;;;6.23;nan;99040.88;4995681;28;20046;-71
2024/01/16 03:34:23;;;;;;;114.15;44.63;;;;;;;6.36;nan;99045.69;5010968;28;20481;-71
2024/01/16 03:36:53;;;;;;;122.75;45.42;;;;;;;6.26;nan;99032.66;4990989;28;20824;-70
2024/01/16 03:39:22;;;;;;;125.53;44.78;;;;;;;6.23;nan;99044.34;5009755;28;20116;-70
2024/01/16 03:41:52;;;;;;;128.60;46.47;;;;;;;6.12;nan;99043.75;4995513;28;20534;-71
2024/01/16 03:44:21;;;;;;;128.77;47.58;;;;;;;6.49;nan;99067.13;5004543;28;20049;-71
2024/01/16 03:46:51;;;;;;;114.80;44.95;;;;;;;6.66;nan;99058.31;5007102;28;20123;-71
2024/01/16 03:49:21;;;;;;;123.45;46.40;;;;;;;6.64;nan;99060.28;5000188;28;20049;-72
2024/01/16 03:51:52;;;;;;;122.15;46.08;;;;;;;6.50;nan;99067.00;4966598;28;20709;-71
2024/01/16 03:54:21;;;;;;;114.55;43.45;;;;;;;6.69;nan;99081.69;4983006;28;20090;-71
2024/01/16 03:56:51;;;;;;;128.70;47.88;;;;;;;6.74;nan;99071.50;4986313;28;20053;-71
2024/01/16 03:59:20;;;;;;;130.60;46.50;;;;;;;6.71;nan;99071.84;4995303;28;20065;-71
2024/01/16 04:01:50;;;;;;;122.55;45.83;;;;;;;6.57;nan;99075.88;4996966;28;20043;-72
2024/01/16 04:04:19;;;;;;;126.57;47.08;;;;;;;6.52;nan;99078.16;4991767;28;20056;-71
2024/01/16 04:06:49;;;;;;;111.28;43.47;;;;;;;6.66;nan;99095.16;4992048;28;20046;-71
2024/01/16 04:09:18;;;;;;;137.95;50.33;;;;;;;6.61;nan;99082.47;4991869;28;20057;-71
2024/01/16 04:11:50;;;;;;;122.35;49.25;;;;;;;6.53;nan;99079.81;4987473;28;20064;-72
2024/01/16 04:14:21;;;;;;;143.33;54.53;;;;;;;6.75;nan;99088.94;4983011;28;20058;-71
2024/01/16 04:16:50;;;;;;;161.60;56.90;;;;;;;6.86;nan;99088.66;5001174;28;20850;-72
2024/01/16 04:19:20;;;;;;;144.27;54.45;;;;;;;6.92;nan;99095.94;4982659;28;20058;-72
2024/01/16 04:21:49;;;;;;;135.82;50.83;;;;;;;7.01;nan;99104.66;4994426;28;20104;-72
2024/01/16 04:24:19;;;;;;;135.32;49.83;;;;;;;7.14;nan;99105.88;4977573;28;20058;-71
2024/01/16 04:26:50;;;;;;;137.60;52.17;;;;;;;7.26;nan;99097.69;4992174;28;20447;-71
2024/01/16 04:29:20;;;;;;;154.95;52.50;;;;;;;7.38;nan;99106.91;5002046;28;20057;-71
2024/01/16 04:31:49;;;;;;;142.30;51.97;;;;;;;7.28;nan;99106.22;4996048;28;20053;-72
2024/01/16 04:34:19;;;;;;;142.48;53.95;;;;;;;7.28;nan;99108.88;5004831;28;20058;-72
2024/01/16 04:36:48;;;;;;;135.57;51.15;;;;;;;7.10;nan;99108.97;4988558;28;20124;-72
2024/01/16 04:39:18;;;;;;;143.45;51.33;;;;;;;7.19;nan;99108.84;4985714;28;20119;-73
2024/01/16 04:41:47;;;;;;;137.30;51.72;;;;;;;7.36;nan;99112.34;4989321;28;20049;-73
2024/01/16 04:44:16;;;;;;;139.70;51.92;;;;;;;7.44;nan;99112.34;5000991;28;20420;-73
2024/01/16 04:46:46;;;;;;;140.20;52.38;;;;;;;7.49;nan;99117.94;5003321;28;20064;-73
2024/01/16 04:49:15;;;;;;;131.45;50.60;;;;;;;7.47;nan;99114.69;4975386;28;20054;-73
2024/01/16 04:51:45;;;;;;;126.10;52.65;;;;;;;7.61;nan;99126.38;4997383;28;20464;-73
2024/01/16 04:54:14;;;;;;;134.95;51.30;;;;;;;7.41;nan;99123.22;4997347;28;20085;-73
2024/01/16 04:56:43;;;;;;;128.13;50.25;;;;;;;7.63;nan;99135.78;4994858;28;20541;-73
2024/01/16 04:59:13;;;;;;;140.32;52.03;;;;;;;8.00;nan;99134.47;4995724;28;20057;-72
2024/01/16 05:01:44;;;;;;;136.60;52.40;;;;;;;7.94;nan;99135.94;4995917;28;20099;-72
2024/01/16 05:04:13;;;;;;;146.70;54.28;;;;;;;7.85;nan;99138.75;4999877;28;20094;-73
2024/01/16 05:06:42;;;;;;;131.30;51.83;;;;;;;7.80;nan;99147.16;4986606;28;20057;-73
2024/01/16 05:09:15;;;;;;;139.75;51.88;;;;;;;7.79;nan;99148.13;4997994;28;20159;-73
2024/01/16 05:11:44;;;;;;;;;;;;;;;7.87;nan;99156.06;4997641;28;20056;-73
2024/01/16 05:14:14;;;;;;;139.32;50.45;;;;;;;8.07;nan;99141.56;4990096;28;20618;-73
2024/01/16 05:16:44;;;;;;;140.80;54.95;;;;;;;8.38;nan;99147.00;4998046;28;20057;-73
2024/01/16 05:19:15;;;;;;;128.27;53.08;;;;;;;8.07;nan;99151.28;4991898;28;20053;-72
2024/01/16 05:21:45;;;;;;;137.13;57.78;;;;;;;8.19;nan;99135.94;4988351;28;20486;-72
2024/01/16 05:24:14;;;;;;;142.23;53.95;;;;;;;8.50;nan;99150.09;4992996;28;20054;-71
2024/01/16 05:26:44;;;;;;;138.95;54.30;;;;;;;8.58;nan;99140.34;4994522;28;20050;-70
2024/01/16 05:29:14;;;;;;;135.32;54.70;;;;;;;8.62;nan;99135.56;4988228;28;20049;-69
2024/01/16 05:31:44;;;;;;;141.48;58.17;;;;;;;9.02;nan;99134.59;4981138;28;20046;-70
2024/01/16 05:34:15;;;;;;;142.90;56.92;;;;;;;8.83;nan;99135.81;4995884;28;20128;-73
2024/01/16 05:36:44;;;;;;;139.80;56.08;;;;;;;8.97;nan;99136.94;4996219;28;20050;-72
2024/01/16 05:39:14;;;;;;;135.50;54.92;;;;;;;8.76;nan;99134.03;4990013;28;20056;-71
2024/01/16 05:41:43;;;;;;;130.52;55.25;;;;;;;8.96;nan;99138.75;4994072;28;20525;-71
2024/01/16 05:44:12;;;;;;;132.73;54.80;;;;;;;8.97;nan;99139.56;4994086;28;20092;-71
2024/01/16 05:46:42;;;;;;;140.05;56.15;;;;;;;9.18;nan;99125.75;4995383;28;20160;-71
2024/01/16 05:49:12;;;;;;;141.73;59.30;;;;;;;9.30;nan;99119.91;4995784;28;20485;-72
2024/01/16 05:51:41;;;;;;;153.05;59.92;;;;;;;9.17;nan;99124.94;4989538;28;20050;-71
2024/01/16 05:54:11;;;;;;;148.13;60.90;;;;;;;8.92;nan;99121.59;5004313;28;20050;-71
2024/01/16 05:56:40;;;;;;;159.75;64.00;;;;;;;8.88;nan;99109.72;5010092;28;20107;-71
2024/01/16 05:59:09;;;;;;;163.70;62.72;;;;;;;9.17;nan;99102.97;5004871;28;20635;-72
2024/01/16 06:01:39;;;;;;;161.95;66.75;;;;;;;9.26;nan;99094.00;5011864;28;20053;-71
2024/01/16 06:04:08;;;;;;;156.60;63.65;;;;;;;9.55;nan;99093.31;5005700;28;20425;-71
2024/01/16 06:06:45;;;;;;;165.15;67.03;;;;;;;9.82;nan;99090.16;4992956;28;20046;-71
2024/01/16 06:09:15;;;;;;;174.07;74.07;;;;;;;10.42;nan;99086.63;4998579;28;20532;-70
2024/01/16 06:11:45;;;;;;;169.48;69.18;;;;;;;10.22;nan;99081.03;4963747;28;20046;-71
2024/01/16 06:14:21;;;;;;;166.07;70.60;;;;;;;10.53;nan;99080.88;4994365;28;20133;-71
2024/01/16 06:16:51;;;;;;;167.73;70.93;;;;;;;11.03;nan;99077.44;4972992;28;20109;-68
2024/01/16 06:19:21;;;;;;;169.80;70.70;;;;;;;10.77;nan;99069.97;4981240;28;20127;-71
2024/01/16 06:21:50;;;;;;;174.13;69.97;;;;;;;10.94;nan;99070.59;4990478;28;20081;-73
2024/01/16 06:24:19;;;;;;;172.13;71.07;;;;;;;11.05;nan;99070.13;5001101;28;20046;-71
2024/01/16 06:26:49;;;;;;;169.10;72.65;;;;;;;10.98;nan;99067.38;5001814;28;20565;-70
2024/01/16 06:29:18;;;;;;;163.30;72.35;;;;;;;11.29;nan;99064.47;4991728;28;20057;-71
2024/01/16 06:31:55;;;;;;;195.10;74.25;;;;;;;11.07;nan;99060.16;4993893;28;20065;-71
2024/01/16 06:34:25;;;;;;;176.55;74.10;;;;;;;10.81;nan;99048.22;4998049;28;20050;-70
2024/01/16 06:36:54;;;;;;;185.95;76.43;;;;;;;11.27;nan;99058.53;5004568;28;20054;-70
2024/01/16 06:39:23;;;;;;;166.82;71.32;;;;;;;11.87;nan;99044.84;5009008;28;20132;-70
2024/01/16 06:41:53;;;;;;;181.07;75.10;;;;;;;11.77;nan;99033.75;5019793;28;20065;-70
2024/01/16 06:44:22;;;;;;;186.88;76.80;;;;;;;11.53;nan;99034.13;4995834;28;20041;-70
2024/01/16 06:46:51;;;;;;;177.38;78.95;;;;;;;11.54;nan;99018.03;4979419;28;20045;-70
2024/01/16 06:49:21;;;;;;;209.88;85.32;;;;;;;11.95;nan;99020.00;5003228;28;20137;-70
2024/01/16 06:51:50;;;;;;;217.63;90.38;;;;;;;12.19;nan;99018.72;5007771;28;20049;-69
2024/01/16 06:54:20;;;;;;;234.20;97.95;;;;;;;11.53;nan;99010.25;4990232;28;20057;-70
2024/01/16 06:56:49;;;;;;;260.65;103.65;;;;;;;12.03;nan;99002.09;5007200;28;20050;-69
2024/01/16 06:59:21;;;;;;;265.17;110.50;;;;;;;11.83;nan;99006.44;5003790;28;20089;-69
2024/01/16 07:01:51;;;;;;;263.17;110.30;;;;;;;12.11;nan;98999.28;5006101;28;20061;-69
2024/01/16 07:04:20;;;;;;;259.45;107.72;;;;;;;12.29;nan;99003.28;4999094;28;20621;-68
2024/01/16 07:06:50;;;;;;;258.02;110.53;;;;;;;12.07;nan;98999.88;5014072;28;20045;-69
2024/01/16 07:09:20;;;;;;;268.42;108.82;;;;;;;11.98;nan;98987.75;4999971;28;20050;-69
2024/01/16 07:11:50;;;;;;;268.17;114.43;;;;;;;11.63;nan;98987.69;5013896;28;20475;-69
2024/01/16 07:14:19;;;;;;;272.40;114.32;;;;;;;12.07;nan;98981.28;5003832;28;20414;-69
2024/01/16 07:16:49;;;;;;;274.55;111.82;;;;;;;12.29;nan;98969.56;4998181;28;20038;-70
2024/01/16 07:19:19;;;;;;;272.20;112.60;;;;;;;12.40;nan;98974.31;4980172;28;20077;-70
2024/01/16 07:21:48;;;;;;;274.02;113.65;;;;;;;12.36;nan;98970.41;4991672;28;20050;-69
2024/01/16 07:24:18;;;;;;;264.10;115.32;;;;;;;12.52;nan;98961.31;5002764;28;20045;-69
2024/01/16 07:26:47;;;;;;;286.45;117.65;;;;;;;12.71;nan;98949.91;5006030;28;20045;-69
2024/01/16 07:29:18;;;;;;;262.02;111.80;;;;;;;12.83;nan;98956.28;5004431;28;20060;-70
2024/01/16 07:31:47;;;;;;;259.45;112.65;;;;;;;12.48;nan;98952.09;5002932;28;20142;-70
2024/01/16 07:34:20;;;;;;;255.63;107.53;;;;;;;12.41;nan;98956.53;4993112;28;20034;-70
2024/01/16 07:36:50;;;;;;;256.38;107.35;;;;;;;12.72;nan;98940.91;5007911;28;20739;-70
2024/01/16 07:39:19;;;;;;;247.73;108.18;;;;;;;12.68;nan;98933.53;5016092;28;20045;-70
2024/01/16 07:41:49;;;;;;;259.30;106.88;;;;;;;13.05;nan;98943.66;5012371;28;20053;-70
2024/01/16 07:44:18;;;;;;;264.30;109.43;;;;;;;13.07;nan;98936.28;5015346;28;20042;-69
2024/01/16 07:46:48;;;;;;;247.93;103.22;;;;;;;13.00;nan;98936.28;5009256;28;20046;-69
2024/01/16 07:49:17;;;;;;;226.88;99.97;;;;;;;13.00;nan;98922.19;4997241;28;20128;-70
2024/01/16 07:51:47;;;;;;;239.75;99.63;;;;;;;13.00;nan;98925.66;4990448;28;20074;-70
2024/01/16 07:54:16;;;;;;;230.23;101.03;;;;;;;13.38;nan;98928.56;4996484;28;20641;-69
2024/01/16 07:56:46;;;;;;;234.55;99.30;;;;;;;13.17;nan;98928.75;4998749;28;20046;-69
2024/01/16 07:59:16;;;;;;;221.52;96.05;;;;;;;13.27;nan;98923.88;5005944;28;20104;-70
2024/01/16 08:01:46;;;;;;;217.68;96.53;;;;;;;13.28;nan;98933.47;4998594;28;20134;-70
2024/01/16 08:04:16;;;;;;;232.00;96.40;;;;;;;12.91;nan;98928.69;4999042;28;20634;-69
2024/01/16 08:06:46;;;;;;;229.35;99.28;;;;;;;12.97;nan;98915.41;5002577;28;20150;-70
2024/01/16 08:09:15;;;;;;;213.20;95.90;;;;;;;13.02;nan;98926.25;5005752;28;20046;-70
2024/01/16 08:11:45;;;;;;;222.05;97.43;;;;;;;13.22;nan;98922.84;5006536;28;20140;-70
2024/01/16 08:14:14;;;;;;;222.13;99.07;;;;;;;13.30;nan;98912.00;4999218;28;20140;-70
2024/01/16 08:16:44;;;;;;;209.73;94.20;;;;;;;13.04;nan;98915.44;5002718;28;20052;-70
2024/01/16 08:19:14;;;;;;;214.77;94.32;;;;;;;13.24;nan;98905.63;5025934;28;20072;-70
2024/01/16 08:21:44;;;;;;;222.35;98.15;;;;;;;13.34;nan;98913.22;5016573;28;20133;-70
2024/01/16 08:24:13;;;;;;;212.90;93.55;;;;;;;13.25;nan;98904.63;5000191;28;20062;-70
2024/01/16 08:26:43;;;;;;;208.73;95.35;;;;;;;13.09;nan;98901.53;4984686;28;20485;-69
2024/01/16 08:29:12;;;;;;;207.48;94.57;;;;;;;13.34;nan;98891.94;5005325;28;20053;-70
2024/01/16 08:31:42;;;;;;;203.45;95.50;;;;;;;13.43;nan;98893.38;5014347;28;20052;-69
2024/01/16 08:34:11;;;;;;;213.20;98.18;;;;;;;13.05;nan;98888.63;5000448;28;20070;-69
2024/01/16 08:36:41;;;;;;;212.88;93.30;;;;;;;13.11;nan;98888.84;5005336;28;20465;-69
2024/01/16 08:39:10;;;;;;;211.32;98.65;;;;;;;13.20;nan;98888.47;5001610;28;20065;-69
2024/01/16 08:41:39;;;;;;;202.27;93.25;;;;;;;13.18;nan;98882.53;5007255;28;20128;-70
2024/01/16 08:44:09;;;;;;;212.43;95.65;;;;;;;12.71;nan;98882.66;5000736;28;20042;-69
2024/01/16 08:46:38;;;;;;;206.30;93.40;;;;;;;13.04;nan;98883.53;4998770;28;20056;-70
2024/01/16 08:49:09;;;;;;;209.00;96.53;;;;;;;13.18;nan;98874.56;5022090;28;20081;-69
2024/01/16 08:51:41;;;;;;;186.95;90.38;;;;;;;13.10;nan;98873.91;5018002;28;20046;-69
2024/01/16 08:54:10;;;;;;;175.73;87.05;;;;;;;13.04;nan;98871.06;5002049;28;20056;-70
2024/01/16 08:56:39;;;;;;;201.13;86.15;;;;;;;13.42;nan;98862.47;4997209;28;20163;-70
2024/01/16 08:59:10;;;;;;;181.98;84.30;;;;;;;13.29;nan;98860.63;4994193;28;20042;-69
2024/01/16 09:01:41;;;;;;;193.45;86.70;;;;;;;13.33;nan;98864.50;4985891;28;20702;-69
2024/01/16 09:04:11;;;;;;;200.32;90.28;;;;;;;12.88;nan;98858.13;4989066;28;20041;-69
2024/01/16 09:06:41;;;;;;;209.02;93.10;;;;;;;12.46;nan;98850.50;4997738;28;20057;-70
2024/01/16 09:09:12;;;;;;;187.23;85.85;;;;;;;12.63;nan;98848.28;4995360;28;20046;-69
2024/01/16 09:11:42;;;;;;;170.80;79.57;;;;;;;12.89;nan;98848.31;4996557;28;20044;-69
2024/01/16 09:14:11;;;;;;;185.90;78.28;;;;;;;13.03;nan;98839.34;4996849;28;20050;-70
2024/01/16 09:16:41;;;;;;;169.90;77.40;;;;;;;13.16;nan;98836.72;4991705;28;20053;-69
2024/01/16 09:19:10;;;;;;;180.98;79.95;;;;;;;13.05;nan;98834.66;4996787;28;20073;-69
2024/01/16 09:21:40;;;;;;;176.57;77.72;;;;;;;13.08;nan;98839.53;5004382;28;20478;-70
2024/01/16 09:24:09;;;;;;;182.75;81.15;;;;;;;13.16;nan;98833.22;5005056;28;20061;-69
2024/01/16 09:26:39;;;;;;;183.32;80.60;;;;;;;13.08;nan;98839.53;5001519;28;20042;-70
2024/01/16 09:29:10;;;;;;;175.18;80.25;;;;;;;12.93;nan;98831.75;4991565;28;20403;-70
2024/01/16 09:31:40;;;;;;;169.07;78.22;;;;;;;12.75;nan;98830.72;4990289;28;20125;-69
2024/01/16 09:34:09;;;;;;;178.43;80.18;;;;;;;12.95;nan;98832.41;4995048;28;20043;-69
2024/01/16 09:36:38;;;;;;;176.48;79.25;;;;;;;13.22;nan;98833.25;4998883;28;20045;-70
2024/01/16 09:39:08;;;;;;;171.80;80.25;;;;;;;13.17;nan;98825.06;4997478;28;20137;-69
2024/01/16 09:41:42;;;;;;;171.25;80.43;;;;;;;12.93;nan;98822.97;4995205;28;20731;-70
2024/01/16 09:44:12;;;;;;;174.18;79.13;;;;;;;13.02;nan;98819.09;4993463;28;20181;-70
2024/01/16 09:46:49;;;;;;;165.98;76.43;;;;;;;12.64;nan;98816.22;4994105;28;20052;-70
2024/01/16 09:49:19;;;;;;;169.90;77.80;;;;;;;12.87;nan;98807.84;4985944;28;20810;-70
2024/01/16 09:51:48;;;;;;;168.20;76.70;;;;;;;12.98;nan;98805.38;4991447;28;20061;-69
2024/01/16 09:54:18;;;;;;;166.40;75.63;;;;;;;13.04;nan;98801.09;4997212;28;20690;-69
2024/01/16 09:56:51;;;;;;;174.65;78.18;;;;;;;13.00;nan;98798.03;4996479;28;20095;-69
2024/01/16 09:59:22;;;;;;;166.77;76.50;;;;;;;12.94;nan;98800.69;4988557;28;20133;-69
2024/01/16 10:01:56;;;;;;;171.48;77.10;;;;;;;12.76;nan;98797.81;4988708;28;20050;-71
2024/01/16 10:04:27;;;;;;;154.93;75.28;;;;;;;12.94;nan;98798.03;4994562;28;20070;-70
2024/01/16 10:06:58;;;;;;;169.48;77.70;;;;;;;12.97;nan;98805.59;4996578;28;20050;-70
2024/01/16 10:09:29;;;;;;;165.55;76.70;;;;;;;13.03;nan;98796.81;4987711;28;20418;-70
2024/01/16 10:12:00;;;;;;;170.93;80.65;;;;;;;12.80;nan;98801.69;4987704;28;20049;-70
2024/01/16 10:14:30;;;;;;;175.13;76.38;;;;;;;12.83;nan;98793.34;4993404;28;20598;-70
2024/01/16 10:17:05;;;;;;;183.75;84.18;;;;;;;12.65;nan;98782.50;4995250;28;20068;-69
2024/01/16 10:19:34;;;;;;;172.70;83.15;;;;;;;12.87;nan;98787.41;4988363;28;20085;-73
2024/01/16 10:22:13;;;;;;;180.05;81.85;;;;;;;13.01;nan;98789.03;4991364;28;20453;-71
2024/01/16 10:24:43;;;;;;;178.10;83.25;;;;;;;12.76;nan;98787.19;4996988;28;20080;-70
2024/01/16 10:27:20;;;;;;;179.43;83.70;;;;;;;12.82;nan;98781.06;4996874;28;20141;-71
2024/01/16 10:29:57;;;;;;;185.40;84.65;;;;;;;12.52;nan;98778.78;5001720;28;20131;-73
2024/01/16 10:32:36;;;;;;;182.60;86.43;;;;;;;12.55;nan;98778.41;4989464;28;20061;-71
2024/01/16 10:35:13;;;;;;;168.93;84.07;;;;;;;12.59;nan;98771.66;4990447;28;20046;-73
2024/01/16 10:37:48;;;;;;;185.30;81.95;;;;;;;12.51;nan;98779.84;4996382;28;20079;-72
2024/01/16 10:40:22;;;;;;;164.18;84.30;;;;;;;12.57;nan;98763.06;4974556;28;20043;-70
2024/01/16 10:43:01;;;;;;;174.73;84.68;;;;;;;12.72;nan;98762.88;4995078;28;20152;-70
2024/01/16 10:45:32;;;;;;;168.90;81.82;;;;;;;12.81;nan;98761.66;4989821;28;20137;-71
2024/01/16 10:48:06;;;;;;;165.48;82.25;;;;;;;12.73;nan;98772.50;4995008;28;20113;-73
2024/01/16 10:50:39;;;;;;;171.63;78.80;;;;;;;12.72;nan;98776.16;4997362;28;20140;-71
2024/01/16 10:53:08;;;;;;;156.38;76.82;;;;;;;12.49;nan;98791.66;4988408;28;20152;-66
2024/01/16 10:55:53;;;;;;;161.90;77.78;;;;;;;12.44;nan;98792.28;4995376;28;20057;-69
2024/01/16 10:58:30;;;;;;;160.45;74.80;;;;;;;12.46;nan;98789.41;5003883;28;20062;-69
2024/01/16 11:01:05;;;;;;;170.57;78.38;;;;;;;12.40;nan;98788.38;4994207;28;20034;-69
2024/01/16 11:03:57;;;;;;;162.18;78.20;;;;;;;12.25;nan;98787.75;5002508;28;20061;-69
2024/01/16 11:06:29;;;;;;;158.20;75.63;;;;;;;12.34;nan;98785.72;4993098;28;20045;-70
2024/01/16 11:08:59;;;;;;;153.18;76.90;;;;;;;12.42;nan;98783.69;4998893;28;20644;-70
2024/01/16 11:11:34;;;;;;;164.77;76.88;;;;;;;12.28;nan;98774.06;4998111;28;20356;-70
2024/01/16 11:14:03;;;;;;;;;;;;;;;12.26;nan;98777.97;5001716;28;20133;-69
2024/01/16 11:16:32;;;;;;;157.55;74.00;;;;;;;12.31;nan;98768.34;4999503;28;19933;-69
2024/01/16 11:19:06;;;;;;;167.73;74.85;;;;;;;12.36;nan;98770.41;4998637;28;20132;-69
2024/01/16 11:21:52;;;;;;;157.50;69.75;;;;;;;12.31;nan;98771.00;5001568;28;20041;-70
2024/01/16 11:24:21;;;;;;;148.77;69.28;;;;;;;12.30;nan;98772.03;5004873;28;20224;-70
2024/01/16 11:26:51;;;;;;;152.77;69.78;;;;;;;12.30;nan;98766.72;5005205;28;20438;-70
2024/01/16 11:29:27;;;;;;;138.27;64.82;;;;;;;12.10;nan;98766.69;5020867;28;20052;-69
2024/01/16 11:31:58;;;;;;;147.70;67.80;;;;;;;12.16;nan;98770.38;5023593;28;20095;-69
2024/01/16 11:34:43;;;;;;;150.45;70.40;;;;;;;12.07;nan;98774.22;5002543;28;20038;-70
2024/01/16 11:37:14;;;;;;;151.25;66.40;;;;;;;11.94;nan;98767.06;5020117;28;20046;-70
2024/01/16 11:39:43;;;;;;;154.57;67.85;;;;;;;12.00;nan;98768.06;4993150;28;20121;-69
2024/01/16 11:42:27;;;;;;;151.00;66.68;;;;;;;11.93;nan;98761.94;4993102;28;20189;-69
2024/01/16 11:44:57;;;;;;;149.20;67.03;;;;;;;12.00;nan;98766.22;4995403;28;20042;-69